Time;durP1;ratioP1;P1;durP2;ratioP2;P2;SDS_P1;SDS_P2;PMS_P1;PMS_P2;Temp;Humidity;BMP_temperature;BMP_pressure;BME280_temperature;BME280_humidity;BME280_pressure;Samples;Min_cycle;Max_cycle;Signal;HPM_P1;HPM_P2
2023/12/26 00:01:47;;;;;;;75.43;38.05;;;;;;;4.15;90.15;93244.16;5128236;27;20585;-74
2023/12/26 00:04:16;;;;;;;60.03;33.90;;;;;;;4.17;90.90;93238.91;5133883;27;20059;-73
2023/12/26 00:06:44;;;;;;;48.58;27.23;;;;;;;4.09;90.15;93242.28;5129375;27;20126;-73
2023/12/26 00:09:12;;;;;;;55.38;29.58;;;;;;;4.06;89.64;93253.59;5132314;27;20051;-73
2023/12/26 00:11:43;;;;;;;51.97;29.33;;;;;;;4.04;90.99;93249.63;5135334;27;20046;-73
2023/12/26 00:14:10;;;;;;;60.63;32.50;;;;;;;4.01;91.57;93246.47;5134015;27;20035;-73
2023/12/26 00:16:37;;;;;;;66.80;35.95;;;;;;;3.84;92.95;93247.53;5136252;27;20135;-73
2023/12/26 00:19:04;;;;;;;59.53;32.38;;;;;;;3.95;93.25;93259.06;5141798;27;20130;-73
2023/12/26 00:21:32;;;;;;;56.13;31.08;;;;;;;3.76;92.24;93222.16;5137662;27;20410;-73
2023/12/26 00:23:59;;;;;;;60.45;31.05;;;;;;;3.95;91.66;93253.97;5136294;27;20039;-73
2023/12/26 00:26:26;;;;;;;54.80;29.70;;;;;;;3.93;91.89;93245.72;5133897;27;20470;-74
2023/12/26 00:28:53;;;;;;;50.88;28.58;;;;;;;3.90;92.36;93244.31;5131946;27;20042;-74
2023/12/26 00:31:20;;;;;;;58.88;32.33;;;;;;;3.92;91.34;93254.28;5132144;27;20126;-73
2023/12/26 00:33:48;;;;;;;53.95;29.48;;;;;;;3.94;91.56;93250.63;5132693;27;20134;-73
2023/12/26 00:36:18;;;;;;;55.65;29.67;;;;;;;3.78;91.20;93240.56;5132209;27;20099;-74
2023/12/26 00:38:46;;;;;;;54.55;27.52;;;;;;;3.88;90.84;93253.84;5139164;27;20058;-74
2023/12/26 00:41:13;;;;;;;51.88;27.25;;;;;;;3.79;90.78;93259.94;5130596;27;20078;-74
2023/12/26 00:43:40;;;;;;;51.78;26.92;;;;;;;3.79;91.12;93260.72;5136390;27;20122;-74
2023/12/26 00:46:07;;;;;;;62.70;32.22;;;;;;;3.74;91.05;93271.38;5136376;27;20489;-73
2023/12/26 00:48:36;;;;;;;81.57;42.88;;;;;;;3.47;92.50;93264.97;5136488;27;20043;-73
2023/12/26 00:51:03;;;;;;;72.50;37.72;;;;;;;3.37;94.15;93284.72;5134088;27;20629;-73
2023/12/26 00:53:30;;;;;;;59.90;33.67;;;;;;;3.30;94.55;93276.94;5133635;27;20054;-73
2023/12/26 00:55:58;;;;;;;69.50;34.08;;;;;;;3.36;94.51;93278.81;5132177;27;20054;-73
2023/12/26 00:58:25;;;;;;;70.78;36.50;;;;;;;3.41;94.99;93283.41;5131541;27;20051;-73
2023/12/26 01:00:52;;;;;;;62.40;33.95;;;;;;;3.46;94.11;93274.34;5133032;27;20660;-74
2023/12/26 01:03:22;;;;;;;57.92;27.85;;;;;;;3.48;93.27;93277.50;5141632;27;20058;-73
2023/12/26 01:05:49;;;;;;;49.65;23.95;;;;;;;3.46;93.20;93273.56;5133341;27;20126;-73
2023/12/26 01:08:16;;;;;;;45.75;25.65;;;;;;;3.46;94.58;93276.09;5131578;27;20546;-73
2023/12/26 01:10:43;;;;;;;48.63;26.85;;;;;;;3.52;94.34;93285.59;5132855;27;20070;-74
2023/12/26 01:13:11;;;;;;;54.00;30.38;;;;;;;3.49;93.61;93278.31;5133535;27;20591;-74
2023/12/26 01:15:40;;;;;;;52.63;27.00;;;;;;;3.57;93.41;93290.97;5138984;27;20562;-73
2023/12/26 01:18:08;;;;;;;50.78;30.17;;;;;;;3.62;92.88;93287.97;5131436;27;20455;-73
2023/12/26 01:20:35;;;;;;;52.80;31.73;;;;;;;3.58;92.78;93287.50;5134499;27;20043;-73
2023/12/26 01:23:02;;;;;;;57.80;32.13;;;;;;;3.58;92.90;93290.03;5132656;27;20141;-73
2023/12/26 01:25:29;;;;;;;60.55;31.55;;;;;;;3.60;92.77;93284.78;5135745;27;20137;-74
2023/12/26 01:27:57;;;;;;;54.47;28.63;;;;;;;3.51;92.31;93281.47;5130334;27;20127;-73
2023/12/26 01:30:25;;;;;;;46.03;22.00;;;;;;;3.63;91.80;93286.19;5131620;27;20138;-73
2023/12/26 01:32:52;;;;;;;43.63;21.92;;;;;;;3.61;91.73;93284.63;5132908;27;20161;-74
2023/12/26 01:35:19;;;;;;;49.42;23.05;;;;;;;3.59;91.79;93286.53;5133935;27;20053;-74
2023/12/26 01:37:46;;;;;;;48.47;24.65;;;;;;;3.48;92.07;93282.59;5135178;27;20150;-74
2023/12/26 01:40:13;;;;;;;59.75;26.73;;;;;;;3.53;92.16;93277.03;5131454;27;20049;-74
2023/12/26 01:42:41;;;;;;;52.50;26.45;;;;;;;3.42;92.66;93270.56;5137643;27;20127;-73
2023/12/26 01:45:09;;;;;;;51.95;27.38;;;;;;;3.44;91.90;93268.66;5133342;27;20046;-74
2023/12/26 01:47:38;;;;;;;58.00;28.42;;;;;;;3.52;92.06;93287.34;5133219;27;20134;-73
2023/12/26 01:50:07;;;;;;;61.72;30.45;;;;;;;3.21;92.69;93286.31;5136988;27;20050;-74
2023/12/26 01:52:35;;;;;;;54.42;28.25;;;;;;;2.89;95.54;93283.69;5132380;27;20475;-74
2023/12/26 01:55:03;;;;;;;67.95;30.83;;;;;;;2.91;96.76;93271.63;5133974;27;20051;-77
2023/12/26 01:57:32;;;;;;;68.43;30.50;;;;;;;2.82;98.07;93254.03;5139901;27;20459;-75
2023/12/26 02:00:00;;;;;;;72.40;29.52;;;;;;;2.98;98.16;93276.84;5130209;27;20429;-75
2023/12/26 02:02:28;;;;;;;64.78;33.05;;;;;;;3.03;97.47;93266.22;5130678;27;20593;-76
2023/12/26 02:04:57;;;;;;;61.90;30.98;;;;;;;3.07;96.82;93267.47;5132536;27;20138;-76
2023/12/26 02:07:25;;;;;;;63.35;31.77;;;;;;;3.09;96.85;93274.94;5133817;27;20050;-73
2023/12/26 02:09:52;;;;;;;66.45;32.30;;;;;;;3.10;97.18;93269.69;5134425;27;20125;-73
2023/12/26 02:12:20;;;;;;;62.78;31.77;;;;;;;3.16;98.00;93273.31;5142267;27;20043;-73
2023/12/26 02:14:49;;;;;;;59.03;30.00;;;;;;;3.19;97.16;93266.19;5130459;27;20139;-73
2023/12/26 02:17:22;;;;;;;56.38;28.88;;;;;;;3.22;95.48;93262.53;5130836;27;20145;-73
2023/12/26 02:19:49;;;;;;;55.00;28.17;;;;;;;3.28;95.16;93266.16;5131680;27;20129;-73
2023/12/26 02:22:17;;;;;;;61.70;29.73;;;;;;;3.28;94.48;93266.16;5138873;27;20051;-73
2023/12/26 02:24:47;;;;;;;55.03;28.02;;;;;;;3.28;94.79;93268.72;5131673;27;20153;-73
2023/12/26 02:27:18;;;;;;;58.05;31.50;;;;;;;3.18;94.42;93261.25;5131512;27;20126;-73
2023/12/26 02:29:47;;;;;;;59.28;30.10;;;;;;;3.26;93.88;93268.88;5138326;27;20050;-73
2023/12/26 02:32:18;;;;;;;57.03;29.08;;;;;;;3.20;93.10;93270.28;5129676;27;20126;-73
2023/12/26 02:34:46;;;;;;;57.45;31.20;;;;;;;3.09;93.59;93268.09;5129416;27;20043;-73
2023/12/26 02:37:13;;;;;;;70.13;34.28;;;;;;;3.12;94.19;93272.88;5132595;27;20138;-73
2023/12/26 02:39:43;;;;;;;63.92;32.15;;;;;;;3.13;94.66;93281.25;5130032;27;20448;-73
2023/12/26 02:42:11;;;;;;;58.80;30.42;;;;;;;3.12;94.85;93274.59;5134658;27;20039;-74
2023/12/26 02:44:38;;;;;;;56.53;30.30;;;;;;;3.12;94.45;93274.59;5132009;27;20210;-74
2023/12/26 02:47:05;;;;;;;58.13;30.52;;;;;;;3.14;94.74;93278.56;5136876;27;20125;-75
2023/12/26 02:49:32;;;;;;;54.20;30.92;;;;;;;3.18;94.49;93279.03;5136748;27;20476;-75
2023/12/26 02:51:59;;;;;;;54.22;29.25;;;;;;;3.19;94.27;93280.59;5133267;27;20130;-73
2023/12/26 02:54:26;;;;;;;63.08;33.08;;;;;;;3.20;93.82;93277.91;5131259;27;20039;-74
2023/12/26 02:56:53;;;;;;;64.28;31.95;;;;;;;3.17;93.68;93280.78;5134389;27;20043;-73
2023/12/26 02:59:22;;;;;;;51.67;28.70;;;;;;;3.16;93.09;93279.19;5131107;27;20059;-73
2023/12/26 03:01:49;;;;;;;49.47;25.98;;;;;;;3.13;93.78;93283.78;5132705;27;20055;-73
2023/12/26 03:04:16;;;;;;;57.03;29.05;;;;;;;3.14;93.30;93282.88;5131235;27;20043;-74
2023/12/26 03:06:43;;;;;;;55.95;29.67;;;;;;;3.11;93.31;93283.97;5130316;27;20160;-73
2023/12/26 03:09:10;;;;;;;51.67;26.63;;;;;;;3.07;93.21;93286.03;5135811;27;20122;-73
2023/12/26 03:11:37;;;;;;;48.90;23.95;;;;;;;3.07;92.59;93288.56;5130671;27;20055;-73
2023/12/26 03:14:04;;;;;;;44.75;22.92;;;;;;;2.98;92.91;93271.78;5136508;27;20552;-73
2023/12/26 03:16:32;;;;;;;44.10;22.25;;;;;;;3.00;93.34;93282.56;5137198;27;20046;-73
2023/12/26 03:18:59;;;;;;;46.08;21.85;;;;;;;2.93;93.53;93272.25;5129802;27;20082;-73
2023/12/26 03:21:26;;;;;;;41.00;20.35;;;;;;;2.96;93.10;93288.91;5139726;27;20601;-73
2023/12/26 03:23:53;;;;;;;36.30;18.33;;;;;;;3.00;93.00;93282.56;5132832;27;20126;-74
2023/12/26 03:26:20;;;;;;;41.38;19.58;;;;;;;2.95;93.36;93282.25;5130987;27;20061;-73
2023/12/26 03:28:47;;;;;;;40.08;20.60;;;;;;;2.89;93.59;93276.06;5130679;27;20118;-73
2023/12/26 03:31:14;;;;;;;37.78;18.98;;;;;;;2.99;93.77;93283.50;5139855;27;20060;-73
2023/12/26 03:33:42;;;;;;;47.83;23.30;;;;;;;2.93;93.99;93284.94;5129726;27;20051;-73
2023/12/26 03:36:10;;;;;;;49.63;22.67;;;;;;;3.01;94.41;93286.66;5144997;27;20506;-73
2023/12/26 03:38:37;;;;;;;54.97;25.20;;;;;;;2.96;94.69;93285.59;5139504;27;20161;-73
2023/12/26 03:41:04;;;;;;;47.47;22.08;;;;;;;2.99;93.68;93293.66;5133522;27;20057;-73
2023/12/26 03:43:31;;;;;;;38.90;21.30;;;;;;;2.92;93.65;93283.34;5137394;27;20561;-72
2023/12/26 03:45:58;;;;;;;41.83;21.13;;;;;;;2.94;93.31;93285.75;5128014;27;20534;-73
2023/12/26 03:48:25;;;;;;;39.42;20.58;;;;;;;2.94;92.33;93296.69;5127836;27;20047;-73
2023/12/26 03:50:53;;;;;;;39.05;20.73;;;;;;;2.94;92.83;93295.88;5132619;27;20157;-73
2023/12/26 03:53:20;;;;;;;40.75;20.33;;;;;;;2.82;92.94;93292.09;5130187;27;20130;-73
2023/12/26 03:55:47;;;;;;;39.58;20.83;;;;;;;2.77;93.75;93295.09;5127864;27;20142;-73
2023/12/26 03:58:14;;;;;;;49.22;23.35;;;;;;;2.75;94.93;93295.28;5131451;27;20065;-73
2023/12/26 04:00:41;;;;;;;44.20;24.15;;;;;;;2.76;94.79;93296.06;5130765;27;20057;-72
2023/12/26 04:03:09;;;;;;;46.97;24.38;;;;;;;2.67;94.37;93280.84;5134640;27;20047;-72
2023/12/26 04:05:36;;;;;;;57.35;27.20;;;;;;;2.75;95.04;93299.53;5130881;27;20519;-73
2023/12/26 04:08:05;;;;;;;51.03;26.42;;;;;;;2.75;95.35;93289.41;5129118;27;20153;-72
2023/12/26 04:10:32;;;;;;;58.20;27.13;;;;;;;2.71;95.13;93296.53;5134615;27;20086;-73
2023/12/26 04:12:59;;;;;;;51.75;24.85;;;;;;;2.73;96.03;93293.84;5134714;27;20138;-73
2023/12/26 04:15:26;;;;;;;51.20;25.90;;;;;;;2.76;95.32;93298.59;5139015;27;20142;-73
2023/12/26 04:17:53;;;;;;;47.92;26.83;;;;;;;2.76;94.51;93303.66;5130189;27;20658;-73
2023/12/26 04:20:19;;;;;;;54.70;27.88;;;;;;;2.79;94.06;93295.75;5138409;27;20089;-73
2023/12/26 04:22:46;;;;;;;47.70;26.55;;;;;;;2.78;93.37;93294.94;5132012;27;20134;-73
2023/12/26 04:25:17;;;;;;;57.28;27.85;;;;;;;2.78;93.81;93301.78;5132485;27;20081;-73
2023/12/26 04:27:44;;;;;;;49.85;25.73;;;;;;;2.74;93.65;93300.50;5129542;27;20484;-74
2023/12/26 04:30:12;;;;;;;42.30;21.67;;;;;;;2.76;93.00;93298.59;5134238;27;20121;-73
2023/12/26 04:32:39;;;;;;;42.10;19.40;;;;;;;2.74;92.73;93298.75;5131173;27;20129;-73
2023/12/26 04:35:06;;;;;;;37.13;16.77;;;;;;;2.66;92.65;93296.22;5129997;27;20532;-73
2023/12/26 04:37:33;;;;;;;34.90;16.02;;;;;;;2.69;92.91;93298.44;5136868;27;20417;-72
2023/12/26 04:40:00;;;;;;;32.15;15.95;;;;;;;2.62;93.13;93302.56;5128578;27;20554;-72
2023/12/26 04:42:29;;;;;;;32.92;15.45;;;;;;;2.66;93.32;93306.38;5130516;27;20043;-72
2023/12/26 04:44:56;;;;;;;34.53;16.02;;;;;;;2.53;93.88;93302.56;5131988;27;20487;-72
2023/12/26 04:47:23;;;;;;;35.97;16.92;;;;;;;2.58;93.24;93312.22;5133874;27;20051;-73
2023/12/26 04:49:50;;;;;;;78.88;39.78;;;;;;;2.60;92.78;93310.31;5135241;27;20133;-73
2023/12/26 04:52:18;;;;;;;69.95;32.58;;;;;;;2.58;92.98;93314.75;5131825;27;20134;-73
2023/12/26 04:54:45;;;;;;;65.35;32.30;;;;;;;2.57;93.57;93312.38;5131511;27;20051;-73
2023/12/26 04:57:12;;;;;;;58.75;30.10;;;;;;;2.56;93.47;93318.41;5134777;27;20482;-73
2023/12/26 04:59:41;;;;;;;63.85;31.35;;;;;;;2.48;93.76;93303.97;5136839;27;20585;-73
2023/12/26 05:02:08;;;;;;;59.38;31.50;;;;;;;2.49;94.54;93316.50;5134224;27;20122;-73
2023/12/26 05:04:34;;;;;;;61.10;33.63;;;;;;;2.55;93.76;93317.63;5135726;27;20716;-73
2023/12/26 05:07:02;;;;;;;92.32;43.88;;;;;;;2.54;94.10;93311.75;5132892;27;20575;-74
2023/12/26 05:09:29;;;;;;;89.85;42.60;;;;;;;2.59;94.70;93313.81;5134602;27;20092;-73
2023/12/26 05:11:56;;;;;;;72.93;36.05;;;;;;;2.55;94.67;93312.56;5135979;27;20074;-73
2023/12/26 05:14:23;;;;;;;73.72;35.85;;;;;;;2.56;95.11;93314.13;5133955;27;20868;-73
2023/12/26 05:16:52;;;;;;;69.57;35.08;;;;;;;2.53;95.53;93309.38;5132349;27;20118;-73
2023/12/26 05:19:19;;;;;;;81.93;38.83;;;;;;;2.56;94.90;93311.59;5135818;27;20571;-73
2023/12/26 05:21:46;;;;;;;80.63;39.30;;;;;;;2.51;93.88;93304.44;5132999;27;20134;-73
2023/12/26 05:24:13;;;;;;;54.10;26.38;;;;;;;2.51;94.12;93316.34;5134097;27;20162;-73
2023/12/26 05:26:40;;;;;;;55.05;25.77;;;;;;;2.42;94.36;93312.22;5131118;27;20043;-73
2023/12/26 05:29:07;;;;;;;48.83;24.77;;;;;;;2.33;95.15;93307.13;5135344;27;20505;-75
2023/12/26 05:31:34;;;;;;;65.72;30.05;;;;;;;2.25;94.83;93305.38;5134004;27;20569;-74
2023/12/26 05:34:05;;;;;;;70.10;35.22;;;;;;;2.27;96.04;93305.22;5132329;27;20134;-74
2023/12/26 05:36:32;;;;;;;67.60;35.92;;;;;;;2.41;95.86;93311.44;5133814;27;20129;-74
2023/12/26 05:38:59;;;;;;;70.50;35.33;;;;;;;2.44;95.53;93313.63;5133765;27;20042;-74
2023/12/26 05:41:26;;;;;;;69.43;38.00;;;;;;;2.45;94.68;93310.16;5135601;27;20035;-73
2023/12/26 05:43:53;;;;;;;82.93;42.80;;;;;;;2.43;94.33;93306.19;5131281;27;20050;-72
2023/12/26 05:46:22;;;;;;;83.63;45.60;;;;;;;2.42;95.58;93307.94;5131667;27;20133;-73
2023/12/26 05:48:49;;;;;;;78.88;41.65;;;;;;;2.45;94.37;93312.69;5136800;27;20414;-73
2023/12/26 05:51:17;;;;;;;82.75;40.67;;;;;;;2.51;93.74;93308.75;5131512;27;20066;-73
2023/12/26 05:53:44;;;;;;;61.28;35.30;;;;;;;2.50;93.91;93313.00;5132142;27;20126;-72
2023/12/26 05:56:11;;;;;;;71.00;34.50;;;;;;;2.48;93.05;93314.13;5134512;27;20515;-73
2023/12/26 05:58:39;;;;;;;61.90;34.15;;;;;;;2.38;93.76;93310.00;5131486;27;20047;-72
2023/12/26 06:01:10;;;;;;;64.50;34.08;;;;;;;2.32;94.92;93302.22;5135770;27;20495;-73
2023/12/26 06:03:37;;;;;;;70.35;35.70;;;;;;;2.39;93.80;93318.38;5129977;27;20054;-72
2023/12/26 06:06:04;;;;;;;66.15;33.88;;;;;;;2.36;94.96;93314.41;5134046;27;20135;-73
2023/12/26 06:08:33;;;;;;;54.97;30.42;;;;;;;2.31;94.59;93318.38;5129681;27;20057;-74
2023/12/26 06:11:00;;;;;;;63.92;34.95;;;;;;;2.29;94.66;93317.72;5132001;27;20161;-73
2023/12/26 06:13:27;;;;;;;64.07;37.97;;;;;;;2.18;95.18;93316.28;5132645;27;20122;-74
2023/12/26 06:15:55;;;;;;;67.80;39.85;;;;;;;2.11;95.74;93319.44;5130119;27;20453;-73
2023/12/26 06:18:22;;;;;;;67.47;40.97;;;;;;;1.98;97.25;93319.88;5134079;27;20159;-73
2023/12/26 06:20:49;;;;;;;75.35;40.28;;;;;;;2.01;97.89;93318.78;5131843;27;20129;-74
2023/12/26 06:23:16;;;;;;;127.75;61.40;;;;;;;1.94;98.27;93317.81;5131901;27;20132;-74
2023/12/26 06:25:46;;;;;;;118.38;57.65;;;;;;;1.97;99.34;93325.09;5130822;27;21090;-74
2023/12/26 06:28:13;;;;;;;79.50;40.42;;;;;;;1.94;99.34;93322.91;5135709;27;20967;-74
2023/12/26 06:30:39;;;;;;;72.68;40.92;;;;;;;1.92;99.60;93312.91;5129686;27;20157;-74
2023/12/26 06:33:06;;;;;;;77.38;39.47;;;;;;;1.90;99.81;93308.94;5131277;27;20050;-74
2023/12/26 06:35:33;;;;;;;78.68;42.38;;;;;;;2.07;99.59;93325.78;5133627;27;20181;-74
2023/12/26 06:38:00;;;;;;;70.03;40.75;;;;;;;2.09;100.00;93323.88;5134405;27;20043;-74
2023/12/26 06:40:27;;;;;;;71.13;40.63;;;;;;;2.15;100.00;93325.00;5130549;27;20138;-74
2023/12/26 06:42:56;;;;;;;88.43;48.03;;;;;;;1.97;100.00;93297.22;5130831;27;20133;-74
2023/12/26 06:45:23;;;;;;;92.10;53.28;;;;;;;2.23;100.00;93325.00;5133836;27;20110;-74
2023/12/26 06:47:49;;;;;;;90.78;55.25;;;;;;;2.27;100.00;93325.50;5130378;27;20077;-74
2023/12/26 06:50:17;;;;;;;106.38;62.08;;;;;;;2.38;100.00;93330.28;5132028;27;20421;-74
2023/12/26 06:52:44;;;;;;;101.97;60.83;;;;;;;2.46;100.00;93326.16;5132560;27;20462;-74
2023/12/26 06:55:11;;;;;;;112.72;64.35;;;;;;;2.55;100.00;93317.63;5130261;27;20052;-74
2023/12/26 06:57:38;;;;;;;111.15;60.70;;;;;;;2.66;99.09;93322.38;5139461;27;20130;-74
2023/12/26 07:00:07;;;;;;;95.95;54.28;;;;;;;2.76;99.44;93316.34;5138239;27;20138;-75
2023/12/26 07:02:34;;;;;;;93.82;55.05;;;;;;;2.92;97.21;93329.03;5133677;27;20043;-73
2023/12/26 07:05:01;;;;;;;80.20;51.28;;;;;;;2.94;98.04;93327.13;5133204;27;20047;-73
2023/12/26 07:07:28;;;;;;;82.72;50.72;;;;;;;3.07;97.27;93334.25;5136284;27;20051;-73
2023/12/26 07:09:55;;;;;;;91.00;56.65;;;;;;;3.12;98.09;93336.31;5135331;27;20331;-73
2023/12/26 07:12:22;;;;;;;86.15;52.67;;;;;;;3.17;96.58;93333.28;5134918;27;20520;-73
2023/12/26 07:14:49;;;;;;;93.40;55.72;;;;;;;3.31;95.80;93344.53;5137608;27;20141;-73
2023/12/26 07:17:17;;;;;;;96.28;57.47;;;;;;;3.45;96.56;93343.88;5142796;27;20193;-73
2023/12/26 07:19:44;;;;;;;91.15;56.58;;;;;;;3.56;95.03;93344.50;5128917;27;20051;-73
2023/12/26 07:22:11;;;;;;;106.30;63.45;;;;;;;3.67;96.09;93350.97;5135777;27;20079;-73
2023/12/26 07:24:38;;;;;;;107.97;64.10;;;;;;;3.74;95.68;93344.25;5131924;27;20152;-73
2023/12/26 07:27:05;;;;;;;91.85;54.63;;;;;;;3.82;94.78;93349.31;5129307;27;20116;-73
2023/12/26 07:29:32;;;;;;;94.32;61.13;;;;;;;3.84;94.45;93344.88;5129586;27;20320;-73
2023/12/26 07:31:59;;;;;;;93.22;59.85;;;;;;;3.76;95.58;93347.44;5132317;27;20486;-73
2023/12/26 07:34:28;;;;;;;74.15;45.97;;;;;;;3.81;96.31;93352.03;5129417;27;20736;-73
2023/12/26 07:36:55;;;;;;;79.25;47.95;;;;;;;3.87;95.59;93356.44;5135945;27;20039;-73
2023/12/26 07:39:22;;;;;;;110.32;65.30;;;;;;;3.77;97.11;93351.56;5136752;27;20051;-73
2023/12/26 07:41:49;;;;;;;74.13;45.00;;;;;;;3.59;99.95;93344.97;5142213;27;20412;-73
2023/12/26 07:44:16;;;;;;;70.70;43.33;;;;;;;3.69;99.64;93334.59;5131986;27;20502;-73
2023/12/26 07:46:43;;;;;;;77.85;42.97;;;;;;;3.76;100.00;93344.09;5138243;27;20543;-72
2023/12/26 07:49:10;;;;;;;71.90;39.00;;;;;;;3.66;100.00;93349.38;5129529;27;20054;-72
2023/12/26 07:51:39;;;;;;;65.65;40.47;;;;;;;3.87;100.00;93349.63;5129222;27;20569;-73
2023/12/26 07:54:06;;;;;;;67.72;40.22;;;;;;;3.71;100.00;93344.59;5129888;27;20048;-73
2023/12/26 07:56:33;;;;;;;65.60;39.88;;;;;;;3.90;100.00;93345.97;5128766;27;20039;-73
2023/12/26 07:59:00;;;;;;;67.07;39.85;;;;;;;4.12;100.00;93348.75;5129176;27;20134;-73
2023/12/26 08:01:31;;;;;;;79.05;45.70;;;;;;;3.91;100.00;93350.09;5128838;27;20126;-72
2023/12/26 08:03:58;;;;;;;75.45;43.35;;;;;;;4.02;100.00;93356.53;5133319;27;20070;-73
2023/12/26 08:06:25;;;;;;;72.15;41.35;;;;;;;4.14;100.00;93349.34;5132358;27;20145;-72
2023/12/26 08:08:53;;;;;;;73.80;41.08;;;;;;;4.35;100.00;93346.22;5133277;27;20053;-73
2023/12/26 08:11:20;;;;;;;72.05;42.00;;;;;;;4.52;100.00;93349.47;5131520;27;20740;-73
2023/12/26 08:13:56;;;;;;;87.15;55.80;;;;;;;4.49;100.00;93337.06;5130718;27;20124;-73
2023/12/26 08:16:24;;;;;;;81.45;50.75;;;;;;;4.28;100.00;93348.66;5126759;27;20042;-74
2023/12/26 08:18:56;;;;;;;87.72;52.05;;;;;;;4.24;100.00;93351.69;5130379;27;20086;-73
2023/12/26 08:21:23;;;;;;;82.63;52.20;;;;;;;3.98;100.00;93348.47;5129452;27;20611;-73
2023/12/26 08:23:50;;;;;;;71.25;43.72;;;;;;;4.21;100.00;93345.19;5131842;27;20113;-73
2023/12/26 08:26:19;;;;;;;74.28;42.53;;;;;;;4.37;100.00;93338.44;5137559;27;20125;-73
2023/12/26 08:28:46;;;;;;;68.32;39.35;;;;;;;4.36;100.00;93337.63;5134012;27;20569;-73
2023/12/26 08:31:14;;;;;;;74.50;40.60;;;;;;;4.48;100.00;93330.41;5146298;27;20055;-73
2023/12/26 08:33:45;;;;;;;64.15;38.63;;;;;;;4.71;100.00;93337.25;5137614;27;20069;-73
2023/12/26 08:36:12;;;;;;;59.58;32.38;;;;;;;4.81;100.00;93344.66;5133907;27;20039;-74
2023/12/26 08:38:39;;;;;;;49.13;27.90;;;;;;;4.87;100.00;93345.72;5133130;27;20135;-73
2023/12/26 08:41:09;;;;;;;50.15;28.63;;;;;;;4.88;100.00;93337.94;5134614;27;20162;-73
2023/12/26 08:43:38;;;;;;;42.85;25.65;;;;;;;5.05;100.00;93333.47;5132643;27;20107;-73
2023/12/26 08:46:05;;;;;;;50.28;27.70;;;;;;;5.18;100.00;93337.19;5136157;27;20039;-73
2023/12/26 08:48:32;;;;;;;66.32;31.73;;;;;;;5.27;100.00;93333.63;5132860;27;20043;-73
2023/12/26 08:50:59;;;;;;;53.85;30.67;;;;;;;5.31;100.00;93334.84;5136828;27;20122;-73
2023/12/26 08:53:26;;;;;;;53.83;29.98;;;;;;;5.47;100.00;93330.56;5133040;27;20046;-73
2023/12/26 08:55:53;;;;;;;66.97;29.80;;;;;;;5.53;100.00;93331.63;5134538;27;20177;-73
2023/12/26 08:58:20;;;;;;;60.35;28.80;;;;;;;5.68;100.00;93331.63;5135292;27;20562;-73
2023/12/26 09:00:49;;;;;;;56.80;29.50;;;;;;;5.82;100.00;93330.03;5135628;27;20087;-73
2023/12/26 09:03:34;;;;;;;59.00;29.77;;;;;;;5.94;100.00;93330.38;5132411;27;20138;-73
2023/12/26 09:06:01;;;;;;;70.60;31.95;;;;;;;6.05;100.00;93324.03;5131842;27;20130;-73
2023/12/26 09:08:28;;;;;;;59.67;28.95;;;;;;;6.25;100.00;93319.19;5134948;27;20035;-73
2023/12/26 09:10:55;;;;;;;53.75;29.25;;;;;;;6.38;99.65;93316.78;5130881;27;20126;-73
2023/12/26 09:13:26;;;;;;;52.28;26.63;;;;;;;6.60;100.00;93321.09;5143164;27;20125;-73
2023/12/26 09:15:54;;;;;;;55.85;26.60;;;;;;;6.65;99.80;93299.16;5134301;27;20084;-73
2023/12/26 09:18:21;;;;;;;44.28;24.02;;;;;;;6.82;98.17;93309.13;5144771;27;20134;-73
2023/12/26 09:20:48;;;;;;;47.97;24.77;;;;;;;7.00;99.17;93298.47;5142892;27;20130;-73
2023/12/26 09:23:15;;;;;;;49.03;24.60;;;;;;;6.92;99.03;93273.06;5130712;27;20043;-73
2023/12/26 09:25:42;;;;;;;48.05;24.67;;;;;;;7.29;97.59;93290.78;5133292;27;20130;-73
2023/12/26 09:28:09;;;;;;;40.22;22.65;;;;;;;7.39;94.88;93291.25;5134394;27;20130;-73
2023/12/26 09:30:37;;;;;;;35.42;20.35;;;;;;;7.48;92.92;93294.44;5132952;27;20047;-73
2023/12/26 09:33:06;;;;;;;34.50;21.02;;;;;;;7.64;93.29;93283.13;5134094;27;20538;-73
2023/12/26 09:35:33;;;;;;;43.90;22.02;;;;;;;8.03;91.82;93278.38;5131183;27;20899;-73
2023/12/26 09:38:00;;;;;;;58.45;27.77;;;;;;;8.27;88.63;93271.94;5132679;27;20138;-73
2023/12/26 09:40:27;;;;;;;50.72;23.10;;;;;;;8.45;87.79;93274.91;5131260;27;20130;-73
2023/12/26 09:42:59;;;;;;;46.90;21.73;;;;;;;8.60;85.87;93267.88;5131350;27;20162;-73
2023/12/26 09:45:39;;;;;;;53.10;22.23;;;;;;;8.65;85.80;93257.84;5134854;27;20103;-73
2023/12/26 09:48:08;;;;;;;37.53;18.08;;;;;;;9.03;83.44;93266.69;5132522;27;20047;-73
2023/12/26 09:50:35;;;;;;;18.45;8.70;;;;;;;9.38;74.77;93247.72;5134792;27;20047;-73
2023/12/26 09:53:05;;;;;;;13.32;7.00;;;;;;;10.02;70.03;93265.88;5132836;27;20162;-73
2023/12/26 09:55:32;;;;;;;7.05;2.42;;;;;;;10.68;64.62;93268.28;5130490;27;20046;-73
2023/12/26 09:57:59;;;;;;;5.45;3.60;;;;;;;11.23;60.66;93273.78;5137667;27;20133;-73
2023/12/26 10:00:32;;;;;;;4.53;2.97;;;;;;;11.67;59.66;93267.84;5137481;27;20048;-74
2023/12/26 10:03:00;;;;;;;8.48;2.65;;;;;;;12.00;57.76;93266.66;5131406;27;20142;-73
2023/12/26 10:05:28;;;;;;;3.03;1.80;;;;;;;12.23;56.18;93270.38;5130976;27;20047;-74
2023/12/26 10:07:55;;;;;;;5.32;1.85;;;;;;;12.46;53.59;93268.88;5132099;27;20047;-74
2023/12/26 10:10:23;;;;;;;7.85;2.80;;;;;;;12.66;53.86;93264.25;5134326;27;20066;-74
2023/12/26 10:12:50;;;;;;;5.90;2.67;;;;;;;12.92;52.60;93269.22;5133374;27;20149;-74
2023/12/26 10:15:18;;;;;;;6.05;2.13;;;;;;;13.03;51.53;93262.50;5131574;27;20130;-73
2023/12/26 10:17:45;;;;;;;20.27;10.07;;;;;;;13.16;51.02;93264.88;5134009;27;20122;-73
2023/12/26 10:20:15;;;;;;;27.95;15.50;;;;;;;13.38;52.01;93253.97;5131733;27;20057;-73
2023/12/26 10:22:44;;;;;;;69.32;32.83;;;;;;;13.54;51.66;93260.28;5131711;27;20043;-74
2023/12/26 10:25:12;;;;;;;43.88;17.05;;;;;;;13.60;50.77;93245.66;5133027;27;20047;-73
2023/12/26 10:27:40;;;;;;;34.35;15.55;;;;;;;13.74;50.66;93254.75;5131436;27;20122;-73
2023/12/26 10:30:08;;;;;;;22.65;9.38;;;;;;;13.84;48.17;93253.38;5132323;27;20411;-73
2023/12/26 10:32:36;;;;;;;50.78;26.00;;;;;;;14.01;49.63;93251.66;5133440;27;20134;-73
2023/12/26 10:35:16;;;;;;;31.70;14.30;;;;;;;14.15;47.62;93249.56;5133687;27;20383;-73
2023/12/26 10:37:44;;;;;;;24.65;11.65;;;;;;;14.33;48.31;93250.41;5130058;27;20135;-73
2023/12/26 10:40:11;;;;;;;10.13;3.55;;;;;;;14.28;46.63;93245.94;5133394;27;20043;-73
2023/12/26 10:42:40;;;;;;;33.72;18.25;;;;;;;14.31;47.31;93236.94;5134044;27;20138;-73
2023/12/26 10:45:10;;;;;;;5.68;2.35;;;;;;;14.45;46.09;93239.22;5129686;27;20070;-73
2023/12/26 10:47:41;;;;;;;8.30;2.92;;;;;;;14.49;45.67;93242.91;5130785;27;20043;-73
2023/12/26 10:50:10;;;;;;;26.27;13.82;;;;;;;14.59;46.75;93234.53;5131774;27;20129;-73
2023/12/26 10:52:41;;;;;;;18.48;8.10;;;;;;;14.62;45.03;93234.09;5127302;27;20525;-73
2023/12/26 10:55:18;;;;;;;25.95;10.02;;;;;;;14.60;45.99;93231.72;5135506;27;20162;-73
2023/12/26 10:57:46;;;;;;;25.15;11.45;;;;;;;14.70;45.28;93234.47;5135176;27;20047;-73
2023/12/26 11:00:51;;;;;;;19.55;10.27;;;;;;;14.80;45.87;93228.72;5136454;27;20731;-73
2023/12/26 13:56:23;;;;;;;19.25;8.55;;;;;;;15.05;45.78;93133.63;5132569;27;20045;-74
2023/12/26 13:59:27;;;;;;;10.82;5.30;;;;;;;15.08;46.11;93131.34;5134015;27;20460;-74
2023/12/26 14:02:31;;;;;;;9.05;4.50;;;;;;;14.91;46.21;93131.34;5133506;27;20047;-74
2023/12/26 14:05:35;;;;;;;8.75;3.22;;;;;;;14.89;46.24;93130.03;5133296;27;20043;-74
2023/12/26 14:08:39;;;;;;;7.85;3.50;;;;;;;14.81;46.59;93126.03;5133934;27;20039;-74
2023/12/26 14:11:43;;;;;;;11.43;4.25;;;;;;;14.68;46.88;93127.16;5133283;27;20414;-74
2023/12/26 14:14:47;;;;;;;11.70;5.40;;;;;;;14.66;46.97;93124.78;5130274;27;20523;-74
2023/12/26 14:17:51;;;;;;;14.07;5.60;;;;;;;14.53;47.12;93122.53;5131872;27;20619;-74
2023/12/26 14:21:01;;;;;;;13.52;5.82;;;;;;;14.48;47.48;93127.63;5130593;27;20132;-74
2023/12/26 14:24:05;;;;;;;20.63;7.65;;;;;;;14.44;47.74;93129.88;5131782;27;20100;-74
2023/12/26 14:27:09;;;;;;;21.17;9.82;;;;;;;14.40;48.20;93129.56;5133510;27;20047;-74